Auto, West Virginia
Current Conditions -  °F | °C
As of 3:55 PM on Thursday 27 Nov 2014 (Local Time) from KLWB Reporting Station
Light Snow Light Snow  
Wind Chill: -5°   Ceiling: 2700
Heat Index:   Visibility: 7mi
Dew Point: -5°   Wind: 9mph
Humidity: 70%   Direction: 300°WNW
Pressure: 30.12"   Gusts: 16mph
Location:  37.96°N, 80.33°W
Report Text: KLWB 272055Z AUTO 30008G14KT 7SM -SN BKN027 OVC035 00/M05 A3012 RMK AO2 T10021051
Loading
Personal Weather Stations






























Interactive Weather Map New forecast layout! Learn more

10-Day Weather Forecast

Advertisements
Track Severe Weather on mobile